sensor_id;sensor_type;location;lat;lon;timestamp;P1;durP1;ratioP1;P2;durP2;ratioP2
41456;SDS011;27197;51.752;5.220;2023-07-31T00:00:56;16.75;;;6.12;;
41456;SDS011;27197;51.752;5.220;2023-07-31T00:03:26;7.85;;;3.80;;
41456;SDS011;27197;51.752;5.220;2023-07-31T00:05:56;8.73;;;3.25;;
41456;SDS011;27197;51.752;5.220;2023-07-31T00:08:26;10.30;;;3.22;;
41456;SDS011;27197;51.752;5.220;2023-07-31T00:10:58;13.45;;;5.55;;
41456;SDS011;27197;51.752;5.220;2023-07-31T00:13:28;8.10;;;2.92;;
41456;SDS011;27197;51.752;5.220;2023-07-31T00:15:58;12.63;;;4.60;;
41456;SDS011;27197;51.752;5.220;2023-07-31T00:18:29;13.68;;;5.15;;
41456;SDS011;27197;51.752;5.220;2023-07-31T00:20:59;15.28;;;5.97;;
41456;SDS011;27197;51.752;5.220;2023-07-31T00:23:30;9.25;;;3.70;;
41456;SDS011;27197;51.752;5.220;2023-07-31T00:26:00;8.58;;;3.80;;
41456;SDS011;27197;51.752;5.220;2023-07-31T00:28:33;10.32;;;4.40;;
41456;SDS011;27197;51.752;5.220;2023-07-31T00:31:03;11.60;;;4.75;;
41456;SDS011;27197;51.752;5.220;2023-07-31T00:33:34;11.22;;;4.75;;
41456;SDS011;27197;51.752;5.220;2023-07-31T00:36:07;13.85;;;5.17;;
41456;SDS011;27197;51.752;5.220;2023-07-31T00:38:37;9.90;;;4.00;;
41456;SDS011;27197;51.752;5.220;2023-07-31T00:41:06;11.78;;;4.40;;
41456;SDS011;27197;51.752;5.220;2023-07-31T00:43:38;11.05;;;3.25;;
41456;SDS011;27197;51.752;5.220;2023-07-31T00:46:07;15.03;;;4.37;;
41456;SDS011;27197;51.752;5.220;2023-07-31T00:48:41;9.50;;;3.92;;
41456;SDS011;27197;51.752;5.220;2023-07-31T00:56:41;9.10;;;3.55;;
41456;SDS011;27197;51.752;5.220;2023-07-31T00:59:13;8.65;;;4.00;;
41456;SDS011;27197;51.752;5.220;2023-07-31T01:01:44;11.38;;;4.00;;
41456;SDS011;27197;51.752;5.220;2023-07-31T01:04:18;9.20;;;4.30;;
41456;SDS011;27197;51.752;5.220;2023-07-31T01:06:52;13.03;;;4.97;;
41456;SDS011;27197;51.752;5.220;2023-07-31T01:09:42;8.33;;;3.65;;
41456;SDS011;27197;51.752;5.220;2023-07-31T01:12:16;7.20;;;3.65;;
41456;SDS011;27197;51.752;5.220;2023-07-31T01:14:53;9.18;;;3.75;;
41456;SDS011;27197;51.752;5.220;2023-07-31T01:17:37;15.80;;;5.08;;
41456;SDS011;27197;51.752;5.220;2023-07-31T01:20:27;10.48;;;3.80;;
41456;SDS011;27197;51.752;5.220;2023-07-31T01:25:57;6.65;;;3.45;;
41456;SDS011;27197;51.752;5.220;2023-07-31T01:31:26;7.55;;;3.80;;
41456;SDS011;27197;51.752;5.220;2023-07-31T01:34:17;8.15;;;4.35;;
41456;SDS011;27197;51.752;5.220;2023-07-31T01:36:50;10.00;;;3.95;;
41456;SDS011;27197;51.752;5.220;2023-07-31T01:39:20;9.05;;;3.67;;
41456;SDS011;27197;51.752;5.220;2023-07-31T01:41:54;13.60;;;4.25;;
41456;SDS011;27197;51.752;5.220;2023-07-31T01:44:24;13.18;;;4.37;;
41456;SDS011;27197;51.752;5.220;2023-07-31T01:46:57;9.80;;;3.95;;
41456;SDS011;27197;51.752;5.220;2023-07-31T01:49:27;13.30;;;4.78;;
41456;SDS011;27197;51.752;5.220;2023-07-31T01:52:01;8.05;;;3.22;;
41456;SDS011;27197;51.752;5.220;2023-07-31T01:54:30;11.10;;;3.47;;
41456;SDS011;27197;51.752;5.220;2023-07-31T01:57:04;10.98;;;4.72;;
41456;SDS011;27197;51.752;5.220;2023-07-31T01:59:35;12.98;;;4.55;;
41456;SDS011;27197;51.752;5.220;2023-07-31T02:02:08;9.00;;;4.10;;
41456;SDS011;27197;51.752;5.220;2023-07-31T02:04:36;12.13;;;3.80;;
41456;SDS011;27197;51.752;5.220;2023-07-31T02:07:08;11.93;;;4.67;;
41456;SDS011;27197;51.752;5.220;2023-07-31T02:09:40;10.68;;;4.00;;
41456;SDS011;27197;51.752;5.220;2023-07-31T02:12:10;13.95;;;4.65;;
41456;SDS011;27197;51.752;5.220;2023-07-31T02:14:44;10.90;;;4.67;;
41456;SDS011;27197;51.752;5.220;2023-07-31T02:17:14;13.38;;;4.50;;
41456;SDS011;27197;51.752;5.220;2023-07-31T02:19:44;15.08;;;5.37;;
41456;SDS011;27197;51.752;5.220;2023-07-31T02:22:14;12.88;;;4.08;;
41456;SDS011;27197;51.752;5.220;2023-07-31T02:24:46;10.55;;;4.40;;
41456;SDS011;27197;51.752;5.220;2023-07-31T02:27:20;11.38;;;4.45;;
41456;SDS011;27197;51.752;5.220;2023-07-31T02:29:50;11.15;;;5.37;;
41456;SDS011;27197;51.752;5.220;2023-07-31T02:32:20;9.33;;;4.20;;
41456;SDS011;27197;51.752;5.220;2023-07-31T02:34:51;9.30;;;3.92;;
41456;SDS011;27197;51.752;5.220;2023-07-31T02:37:23;9.48;;;4.12;;
41456;SDS011;27197;51.752;5.220;2023-07-31T02:39:54;7.50;;;3.52;;
41456;SDS011;27197;51.752;5.220;2023-07-31T02:42:24;12.98;;;5.70;;
41456;SDS011;27197;51.752;5.220;2023-07-31T02:44:56;8.28;;;4.45;;
41456;SDS011;27197;51.752;5.220;2023-07-31T02:47:28;9.73;;;4.22;;
41456;SDS011;27197;51.752;5.220;2023-07-31T02:50:01;9.23;;;4.50;;
41456;SDS011;27197;51.752;5.220;2023-07-31T02:52:33;13.43;;;4.30;;
41456;SDS011;27197;51.752;5.220;2023-07-31T02:55:06;11.12;;;4.58;;
41456;SDS011;27197;51.752;5.220;2023-07-31T02:57:42;9.88;;;4.47;;
41456;SDS011;27197;51.752;5.220;2023-07-31T03:00:12;10.65;;;4.78;;
41456;SDS011;27197;51.752;5.220;2023-07-31T03:02:43;11.22;;;3.92;;
41456;SDS011;27197;51.752;5.220;2023-07-31T03:05:14;11.08;;;4.03;;
41456;SDS011;27197;51.752;5.220;2023-07-31T03:07:44;9.58;;;4.12;;
41456;SDS011;27197;51.752;5.220;2023-07-31T03:10:15;9.60;;;3.85;;
41456;SDS011;27197;51.752;5.220;2023-07-31T03:12:48;11.60;;;3.92;;
41456;SDS011;27197;51.752;5.220;2023-07-31T03:15:20;11.93;;;5.30;;
41456;SDS011;27197;51.752;5.220;2023-07-31T03:17:50;10.43;;;3.90;;
41456;SDS011;27197;51.752;5.220;2023-07-31T03:20:21;13.60;;;4.75;;
41456;SDS011;27197;51.752;5.220;2023-07-31T03:22:51;13.78;;;4.78;;
41456;SDS011;27197;51.752;5.220;2023-07-31T03:25:22;13.18;;;4.70;;
41456;SDS011;27197;51.752;5.220;2023-07-31T03:27:53;9.18;;;3.90;;
41456;SDS011;27197;51.752;5.220;2023-07-31T03:30:24;9.98;;;4.28;;
41456;SDS011;27197;51.752;5.220;2023-07-31T03:32:54;11.75;;;4.25;;
41456;SDS011;27197;51.752;5.220;2023-07-31T03:35:25;11.38;;;4.08;;
41456;SDS011;27197;51.752;5.220;2023-07-31T03:37:55;11.90;;;4.78;;
41456;SDS011;27197;51.752;5.220;2023-07-31T03:40:26;7.55;;;4.53;;
41456;SDS011;27197;51.752;5.220;2023-07-31T03:42:57;9.68;;;4.65;;
41456;SDS011;27197;51.752;5.220;2023-07-31T03:45:28;13.55;;;4.92;;
41456;SDS011;27197;51.752;5.220;2023-07-31T03:48:00;11.78;;;4.95;;
41456;SDS011;27197;51.752;5.220;2023-07-31T03:50:29;9.90;;;4.42;;
41456;SDS011;27197;51.752;5.220;2023-07-31T03:53:02;10.08;;;4.40;;
41456;SDS011;27197;51.752;5.220;2023-07-31T03:55:32;10.30;;;4.15;;
41456;SDS011;27197;51.752;5.220;2023-07-31T03:58:03;11.28;;;4.45;;
41456;SDS011;27197;51.752;5.220;2023-07-31T04:00:34;9.55;;;4.00;;
41456;SDS011;27197;51.752;5.220;2023-07-31T04:03:05;10.70;;;4.78;;
41456;SDS011;27197;51.752;5.220;2023-07-31T04:05:37;11.25;;;4.08;;
41456;SDS011;27197;51.752;5.220;2023-07-31T04:08:06;10.00;;;4.03;;
41456;SDS011;27197;51.752;5.220;2023-07-31T04:10:39;10.60;;;4.50;;
41456;SDS011;27197;51.752;5.220;2023-07-31T04:13:08;9.70;;;4.42;;
41456;SDS011;27197;51.752;5.220;2023-07-31T04:15:41;14.83;;;4.65;;
41456;SDS011;27197;51.752;5.220;2023-07-31T04:18:09;10.20;;;5.00;;
41456;SDS011;27197;51.752;5.220;2023-07-31T04:20:44;10.08;;;4.87;;
41456;SDS011;27197;51.752;5.220;2023-07-31T04:23:14;11.33;;;4.40;;
41456;SDS011;27197;51.752;5.220;2023-07-31T04:25:46;10.15;;;4.55;;
41456;SDS011;27197;51.752;5.220;2023-07-31T04:28:17;8.88;;;4.10;;
41456;SDS011;27197;51.752;5.220;2023-07-31T04:30:48;11.63;;;4.50;;
41456;SDS011;27197;51.752;5.220;2023-07-31T04:33:19;11.35;;;4.30;;
41456;SDS011;27197;51.752;5.220;2023-07-31T04:35:57;10.65;;;3.75;;
41456;SDS011;27197;51.752;5.220;2023-07-31T04:38:22;7.72;;;3.58;;
41456;SDS011;27197;51.752;5.220;2023-07-31T04:40:52;10.08;;;4.08;;
41456;SDS011;27197;51.752;5.220;2023-07-31T04:43:25;10.78;;;4.12;;
41456;SDS011;27197;51.752;5.220;2023-07-31T04:48:45;9.93;;;4.23;;
41456;SDS011;27197;51.752;5.220;2023-07-31T04:51:17;11.50;;;3.77;;
41456;SDS011;27197;51.752;5.220;2023-07-31T04:53:53;7.92;;;4.35;;
41456;SDS011;27197;51.752;5.220;2023-07-31T04:56:23;10.65;;;4.47;;
41456;SDS011;27197;51.752;5.220;2023-07-31T04:58:56;8.65;;;3.98;;
41456;SDS011;27197;51.752;5.220;2023-07-31T05:01:29;15.08;;;5.08;;
41456;SDS011;27197;51.752;5.220;2023-07-31T05:04:04;9.13;;;5.10;;
41456;SDS011;27197;51.752;5.220;2023-07-31T05:06:36;10.55;;;4.97;;
41456;SDS011;27197;51.752;5.220;2023-07-31T05:09:06;10.10;;;4.15;;
41456;SDS011;27197;51.752;5.220;2023-07-31T05:11:38;13.22;;;4.33;;
41456;SDS011;27197;51.752;5.220;2023-07-31T05:19:34;12.82;;;4.92;;
41456;SDS011;27197;51.752;5.220;2023-07-31T05:22:04;9.23;;;4.25;;
41456;SDS011;27197;51.752;5.220;2023-07-31T05:24:37;9.68;;;4.45;;
41456;SDS011;27197;51.752;5.220;2023-07-31T05:27:10;11.05;;;4.42;;
41456;SDS011;27197;51.752;5.220;2023-07-31T05:29:40;11.90;;;5.47;;
41456;SDS011;27197;51.752;5.220;2023-07-31T05:32:09;10.13;;;4.42;;
41456;SDS011;27197;51.752;5.220;2023-07-31T05:34:39;9.88;;;5.17;;
41456;SDS011;27197;51.752;5.220;2023-07-31T05:37:10;9.45;;;4.90;;
41456;SDS011;27197;51.752;5.220;2023-07-31T05:39:39;8.78;;;5.20;;
41456;SDS011;27197;51.752;5.220;2023-07-31T05:42:11;9.35;;;4.50;;
41456;SDS011;27197;51.752;5.220;2023-07-31T05:44:41;9.85;;;4.65;;
41456;SDS011;27197;51.752;5.220;2023-07-31T05:47:10;7.75;;;4.42;;
41456;SDS011;27197;51.752;5.220;2023-07-31T05:49:39;7.85;;;4.15;;
41456;SDS011;27197;51.752;5.220;2023-07-31T05:52:12;8.05;;;5.05;;
41456;SDS011;27197;51.752;5.220;2023-07-31T05:57:38;7.08;;;3.70;;
41456;SDS011;27197;51.752;5.220;2023-07-31T06:00:10;9.93;;;4.40;;
41456;SDS011;27197;51.752;5.220;2023-07-31T06:02:41;6.50;;;3.60;;
41456;SDS011;27197;51.752;5.220;2023-07-31T06:05:14;6.85;;;3.45;;
41456;SDS011;27197;51.752;5.220;2023-07-31T06:07:44;6.42;;;3.27;;
41456;SDS011;27197;51.752;5.220;2023-07-31T06:10:20;4.87;;;2.72;;
41456;SDS011;27197;51.752;5.220;2023-07-31T06:12:50;6.47;;;2.83;;
41456;SDS011;27197;51.752;5.220;2023-07-31T06:15:21;6.83;;;3.22;;
41456;SDS011;27197;51.752;5.220;2023-07-31T06:17:51;7.08;;;2.85;;
41456;SDS011;27197;51.752;5.220;2023-07-31T06:20:24;6.83;;;2.72;;
41456;SDS011;27197;51.752;5.220;2023-07-31T06:22:56;4.28;;;2.62;;
41456;SDS011;27197;51.752;5.220;2023-07-31T06:25:29;4.95;;;2.60;;
41456;SDS011;27197;51.752;5.220;2023-07-31T06:28:00;5.15;;;2.80;;
41456;SDS011;27197;51.752;5.220;2023-07-31T06:30:31;3.83;;;2.30;;
41456;SDS011;27197;51.752;5.220;2023-07-31T06:33:03;3.70;;;1.70;;
41456;SDS011;27197;51.752;5.220;2023-07-31T06:35:35;3.67;;;2.00;;
41456;SDS011;27197;51.752;5.220;2023-07-31T06:38:07;3.05;;;1.85;;
41456;SDS011;27197;51.752;5.220;2023-07-31T06:40:38;4.20;;;2.05;;
41456;SDS011;27197;51.752;5.220;2023-07-31T06:43:07;3.17;;;1.60;;
41456;SDS011;27197;51.752;5.220;2023-07-31T06:45:38;5.45;;;2.25;;
41456;SDS011;27197;51.752;5.220;2023-07-31T06:48:06;10.13;;;3.33;;
41456;SDS011;27197;51.752;5.220;2023-07-31T06:50:40;6.25;;;2.55;;
41456;SDS011;27197;51.752;5.220;2023-07-31T06:53:10;8.20;;;2.72;;
41456;SDS011;27197;51.752;5.220;2023-07-31T06:55:44;5.95;;;2.50;;
41456;SDS011;27197;51.752;5.220;2023-07-31T06:58:14;4.35;;;2.30;;
41456;SDS011;27197;51.752;5.220;2023-07-31T07:00:48;4.45;;;2.27;;
41456;SDS011;27197;51.752;5.220;2023-07-31T07:03:19;4.53;;;2.40;;
41456;SDS011;27197;51.752;5.220;2023-07-31T07:05:51;4.53;;;1.98;;
41456;SDS011;27197;51.752;5.220;2023-07-31T07:08:23;5.10;;;2.50;;
41456;SDS011;27197;51.752;5.220;2023-07-31T07:10:56;3.70;;;2.15;;
41456;SDS011;27197;51.752;5.220;2023-07-31T07:13:25;4.22;;;2.37;;
41456;SDS011;27197;51.752;5.220;2023-07-31T07:15:56;4.67;;;2.47;;
41456;SDS011;27197;51.752;5.220;2023-07-31T07:18:31;3.55;;;2.35;;
41456;SDS011;27197;51.752;5.220;2023-07-31T07:21:04;3.50;;;1.80;;
41456;SDS011;27197;51.752;5.220;2023-07-31T07:23:33;4.08;;;1.92;;
41456;SDS011;27197;51.752;5.220;2023-07-31T07:26:05;4.00;;;1.77;;
41456;SDS011;27197;51.752;5.220;2023-07-31T07:28:35;2.80;;;1.60;;
41456;SDS011;27197;51.752;5.220;2023-07-31T07:31:04;2.95;;;1.20;;
41456;SDS011;27197;51.752;5.220;2023-07-31T07:33:37;3.90;;;1.80;;
41456;SDS011;27197;51.752;5.220;2023-07-31T07:36:06;3.35;;;1.60;;
41456;SDS011;27197;51.752;5.220;2023-07-31T07:38:35;1.98;;;1.50;;
41456;SDS011;27197;51.752;5.220;2023-07-31T07:41:05;2.47;;;1.40;;
41456;SDS011;27197;51.752;5.220;2023-07-31T07:43:36;2.83;;;1.40;;
41456;SDS011;27197;51.752;5.220;2023-07-31T07:46:06;2.50;;;1.52;;
41456;SDS011;27197;51.752;5.220;2023-07-31T07:48:36;4.22;;;1.80;;
41456;SDS011;27197;51.752;5.220;2023-07-31T07:51:04;2.75;;;1.80;;
41456;SDS011;27197;51.752;5.220;2023-07-31T07:53:36;3.45;;;1.72;;
41456;SDS011;27197;51.752;5.220;2023-07-31T07:56:06;2.77;;;1.67;;
41456;SDS011;27197;51.752;5.220;2023-07-31T07:58:39;3.05;;;1.80;;
41456;SDS011;27197;51.752;5.220;2023-07-31T08:01:09;2.67;;;1.77;;
41456;SDS011;27197;51.752;5.220;2023-07-31T08:03:41;2.67;;;1.62;;
41456;SDS011;27197;51.752;5.220;2023-07-31T08:06:14;2.67;;;1.62;;
41456;SDS011;27197;51.752;5.220;2023-07-31T08:08:44;2.95;;;1.92;;
41456;SDS011;27197;51.752;5.220;2023-07-31T08:11:15;5.05;;;2.70;;
41456;SDS011;27197;51.752;5.220;2023-07-31T08:13:47;3.22;;;2.15;;
41456;SDS011;27197;51.752;5.220;2023-07-31T08:16:17;3.75;;;2.15;;
41456;SDS011;27197;51.752;5.220;2023-07-31T08:18:46;4.20;;;2.10;;
41456;SDS011;27197;51.752;5.220;2023-07-31T08:21:16;3.40;;;2.42;;
41456;SDS011;27197;51.752;5.220;2023-07-31T08:23:47;4.90;;;2.45;;
41456;SDS011;27197;51.752;5.220;2023-07-31T08:26:20;3.00;;;2.40;;
41456;SDS011;27197;51.752;5.220;2023-07-31T08:28:51;3.60;;;2.50;;
41456;SDS011;27197;51.752;5.220;2023-07-31T08:31:23;4.30;;;2.85;;
41456;SDS011;27197;51.752;5.220;2023-07-31T08:33:53;3.10;;;2.10;;
41456;SDS011;27197;51.752;5.220;2023-07-31T08:36:23;4.62;;;2.30;;
41456;SDS011;27197;51.752;5.220;2023-07-31T08:38:54;5.83;;;2.60;;
41456;SDS011;27197;51.752;5.220;2023-07-31T08:41:27;3.55;;;2.40;;
41456;SDS011;27197;51.752;5.220;2023-07-31T08:44:00;3.87;;;2.67;;
41456;SDS011;27197;51.752;5.220;2023-07-31T08:46:32;6.45;;;2.58;;
41456;SDS011;27197;51.752;5.220;2023-07-31T08:49:07;4.60;;;2.42;;
41456;SDS011;27197;51.752;5.220;2023-07-31T08:51:36;5.42;;;2.22;;
41456;SDS011;27197;51.752;5.220;2023-07-31T08:54:05;5.30;;;2.65;;
41456;SDS011;27197;51.752;5.220;2023-07-31T08:56:37;5.20;;;3.08;;
41456;SDS011;27197;51.752;5.220;2023-07-31T08:59:08;4.90;;;3.52;;
41456;SDS011;27197;51.752;5.220;2023-07-31T09:01:43;6.35;;;3.12;;
41456;SDS011;27197;51.752;5.220;2023-07-31T09:04:13;4.85;;;3.33;;
41456;SDS011;27197;51.752;5.220;2023-07-31T09:06:45;4.70;;;2.80;;
41456;SDS011;27197;51.752;5.220;2023-07-31T09:09:19;5.65;;;3.65;;
41456;SDS011;27197;51.752;5.220;2023-07-31T09:11:49;5.05;;;2.95;;
41456;SDS011;27197;51.752;5.220;2023-07-31T09:17:13;5.95;;;2.85;;
41456;SDS011;27197;51.752;5.220;2023-07-31T09:19:45;6.35;;;3.17;;
41456;SDS011;27197;51.752;5.220;2023-07-31T09:22:16;5.45;;;3.05;;
41456;SDS011;27197;51.752;5.220;2023-07-31T09:24:49;5.95;;;3.77;;
41456;SDS011;27197;51.752;5.220;2023-07-31T09:27:19;3.77;;;2.75;;
41456;SDS011;27197;51.752;5.220;2023-07-31T09:30:02;8.58;;;4.50;;
41456;SDS011;27197;51.752;5.220;2023-07-31T09:32:37;8.08;;;3.45;;
41456;SDS011;27197;51.752;5.220;2023-07-31T09:35:40;5.53;;;3.08;;
41456;SDS011;27197;51.752;5.220;2023-07-31T09:37:52;5.72;;;3.72;;
41456;SDS011;27197;51.752;5.220;2023-07-31T09:40:30;4.67;;;3.05;;
41456;SDS011;27197;51.752;5.220;2023-07-31T09:43:01;5.42;;;3.67;;
41456;SDS011;27197;51.752;5.220;2023-07-31T09:45:41;7.00;;;3.33;;
41456;SDS011;27197;51.752;5.220;2023-07-31T09:48:12;6.12;;;3.17;;
41456;SDS011;27197;51.752;5.220;2023-07-31T09:50:51;7.55;;;4.10;;
41456;SDS011;27197;51.752;5.220;2023-07-31T09:53:22;7.30;;;3.50;;
41456;SDS011;27197;51.752;5.220;2023-07-31T09:55:57;7.15;;;3.25;;
41456;SDS011;27197;51.752;5.220;2023-07-31T09:58:30;8.30;;;3.20;;
41456;SDS011;27197;51.752;5.220;2023-07-31T10:01:03;5.40;;;3.05;;
41456;SDS011;27197;51.752;5.220;2023-07-31T10:03:38;6.05;;;2.95;;
41456;SDS011;27197;51.752;5.220;2023-07-31T10:06:06;4.15;;;2.92;;
41456;SDS011;27197;51.752;5.220;2023-07-31T10:08:41;5.95;;;2.75;;
41456;SDS011;27197;51.752;5.220;2023-07-31T10:11:15;5.87;;;2.92;;
41456;SDS011;27197;51.752;5.220;2023-07-31T10:13:49;4.25;;;3.22;;
41456;SDS011;27197;51.752;5.220;2023-07-31T10:16:23;4.28;;;2.77;;
41456;SDS011;27197;51.752;5.220;2023-07-31T10:18:55;3.95;;;2.60;;
41456;SDS011;27197;51.752;5.220;2023-07-31T10:21:27;5.12;;;2.90;;
41456;SDS011;27197;51.752;5.220;2023-07-31T10:24:04;3.80;;;2.90;;
41456;SDS011;27197;51.752;5.220;2023-07-31T10:26:35;4.25;;;3.05;;
41456;SDS011;27197;51.752;5.220;2023-07-31T10:29:06;5.50;;;3.22;;
41456;SDS011;27197;51.752;5.220;2023-07-31T10:31:39;3.50;;;2.80;;
41456;SDS011;27197;51.752;5.220;2023-07-31T10:34:13;4.47;;;2.47;;
41456;SDS011;27197;51.752;5.220;2023-07-31T10:36:43;4.30;;;2.70;;
41456;SDS011;27197;51.752;5.220;2023-07-31T10:42:09;4.08;;;2.17;;
41456;SDS011;27197;51.752;5.220;2023-07-31T10:44:46;4.50;;;2.30;;
41456;SDS011;27197;51.752;5.220;2023-07-31T10:47:15;5.53;;;2.47;;
41456;SDS011;27197;51.752;5.220;2023-07-31T10:49:50;3.58;;;1.95;;
41456;SDS011;27197;51.752;5.220;2023-07-31T10:52:20;4.97;;;2.60;;
41456;SDS011;27197;51.752;5.220;2023-07-31T10:55:12;4.92;;;2.15;;
41456;SDS011;27197;51.752;5.220;2023-07-31T10:57:48;5.05;;;2.55;;
41456;SDS011;27197;51.752;5.220;2023-07-31T11:00:19;4.92;;;2.33;;
41456;SDS011;27197;51.752;5.220;2023-07-31T11:06:22;3.72;;;2.05;;
41456;SDS011;27197;51.752;5.220;2023-07-31T11:08:23;4.87;;;2.50;;
41456;SDS011;27197;51.752;5.220;2023-07-31T11:13:58;3.50;;;2.27;;
41456;SDS011;27197;51.752;5.220;2023-07-31T11:16:23;2.92;;;1.98;;
41456;SDS011;27197;51.752;5.220;2023-07-31T11:18:54;4.05;;;2.60;;
41456;SDS011;27197;51.752;5.220;2023-07-31T11:21:30;3.02;;;2.00;;
41456;SDS011;27197;51.752;5.220;2023-07-31T11:23:59;4.03;;;2.42;;
41456;SDS011;27197;51.752;5.220;2023-07-31T11:26:31;2.87;;;1.95;;
41456;SDS011;27197;51.752;5.220;2023-07-31T11:29:03;4.00;;;2.45;;
41456;SDS011;27197;51.752;5.220;2023-07-31T11:31:46;4.15;;;2.62;;
41456;SDS011;27197;51.752;5.220;2023-07-31T11:34:16;6.22;;;2.80;;
41456;SDS011;27197;51.752;5.220;2023-07-31T11:36:54;7.37;;;2.85;;
41456;SDS011;27197;51.752;5.220;2023-07-31T11:39:27;3.40;;;2.87;;
41456;SDS011;27197;51.752;5.220;2023-07-31T11:42:02;5.47;;;2.90;;
41456;SDS011;27197;51.752;5.220;2023-07-31T11:44:39;3.77;;;3.00;;
41456;SDS011;27197;51.752;5.220;2023-07-31T11:47:10;3.75;;;2.20;;
41456;SDS011;27197;51.752;5.220;2023-07-31T11:49:42;4.30;;;2.70;;
41456;SDS011;27197;51.752;5.220;2023-07-31T11:52:14;4.67;;;2.95;;
41456;SDS011;27197;51.752;5.220;2023-07-31T11:54:45;4.28;;;3.08;;
41456;SDS011;27197;51.752;5.220;2023-07-31T11:57:18;4.30;;;2.90;;
41456;SDS011;27197;51.752;5.220;2023-07-31T11:59:49;5.87;;;3.10;;
41456;SDS011;27197;51.752;5.220;2023-07-31T12:02:19;5.33;;;3.25;;
41456;SDS011;27197;51.752;5.220;2023-07-31T12:04:50;5.92;;;3.30;;
41456;SDS011;27197;51.752;5.220;2023-07-31T12:07:19;5.40;;;3.12;;
41456;SDS011;27197;51.752;5.220;2023-07-31T12:09:52;3.90;;;2.80;;
41456;SDS011;27197;51.752;5.220;2023-07-31T12:12:27;4.53;;;3.10;;
41456;SDS011;27197;51.752;5.220;2023-07-31T12:14:58;4.05;;;2.70;;
41456;SDS011;27197;51.752;5.220;2023-07-31T12:17:28;4.35;;;2.95;;
41456;SDS011;27197;51.752;5.220;2023-07-31T12:19:57;5.75;;;3.47;;
41456;SDS011;27197;51.752;5.220;2023-07-31T12:22:30;4.50;;;3.17;;
41456;SDS011;27197;51.752;5.220;2023-07-31T12:25:00;6.78;;;3.65;;
41456;SDS011;27197;51.752;5.220;2023-07-31T12:27:32;8.45;;;4.50;;
41456;SDS011;27197;51.752;5.220;2023-07-31T12:30:03;5.45;;;3.87;;
41456;SDS011;27197;51.752;5.220;2023-07-31T12:32:37;5.05;;;3.22;;
41456;SDS011;27197;51.752;5.220;2023-07-31T12:35:07;7.42;;;4.12;;
41456;SDS011;27197;51.752;5.220;2023-07-31T12:37:37;5.67;;;3.87;;
41456;SDS011;27197;51.752;5.220;2023-07-31T12:40:05;4.67;;;3.50;;
41456;SDS011;27197;51.752;5.220;2023-07-31T12:42:36;6.15;;;3.35;;
41456;SDS011;27197;51.752;5.220;2023-07-31T12:45:05;5.75;;;3.80;;
41456;SDS011;27197;51.752;5.220;2023-07-31T12:47:36;5.10;;;3.35;;
41456;SDS011;27197;51.752;5.220;2023-07-31T12:50:06;5.03;;;3.27;;
41456;SDS011;27197;51.752;5.220;2023-07-31T12:52:38;5.83;;;3.62;;
41456;SDS011;27197;51.752;5.220;2023-07-31T12:55:09;7.00;;;3.55;;
41456;SDS011;27197;51.752;5.220;2023-07-31T12:57:45;5.60;;;3.83;;
41456;SDS011;27197;51.752;5.220;2023-07-31T13:00:15;6.70;;;4.03;;
41456;SDS011;27197;51.752;5.220;2023-07-31T13:02:50;6.80;;;3.58;;
41456;SDS011;27197;51.752;5.220;2023-07-31T13:05:21;6.70;;;3.62;;
41456;SDS011;27197;51.752;5.220;2023-07-31T13:07:54;5.17;;;3.30;;
41456;SDS011;27197;51.752;5.220;2023-07-31T13:10:44;4.78;;;3.35;;
41456;SDS011;27197;51.752;5.220;2023-07-31T13:13:15;5.45;;;3.33;;
41456;SDS011;27197;51.752;5.220;2023-07-31T13:15:49;6.22;;;3.87;;
41456;SDS011;27197;51.752;5.220;2023-07-31T13:18:24;6.03;;;3.70;;
41456;SDS011;27197;51.752;5.220;2023-07-31T13:20:52;5.45;;;4.42;;
41456;SDS011;27197;51.752;5.220;2023-07-31T13:23:23;6.62;;;4.20;;
41456;SDS011;27197;51.752;5.220;2023-07-31T13:25:54;9.20;;;5.42;;
41456;SDS011;27197;51.752;5.220;2023-07-31T13:28:24;8.18;;;5.50;;
41456;SDS011;27197;51.752;5.220;2023-07-31T13:30:58;6.70;;;4.17;;
41456;SDS011;27197;51.752;5.220;2023-07-31T13:33:28;7.72;;;5.10;;
41456;SDS011;27197;51.752;5.220;2023-07-31T13:36:01;7.67;;;4.70;;
41456;SDS011;27197;51.752;5.220;2023-07-31T13:38:30;8.13;;;5.03;;
41456;SDS011;27197;51.752;5.220;2023-07-31T13:41:04;8.13;;;4.78;;
41456;SDS011;27197;51.752;5.220;2023-07-31T13:43:35;9.08;;;4.67;;
41456;SDS011;27197;51.752;5.220;2023-07-31T13:46:07;8.88;;;5.17;;
41456;SDS011;27197;51.752;5.220;2023-07-31T13:48:36;8.35;;;4.78;;
41456;SDS011;27197;51.752;5.220;2023-07-31T13:51:11;8.45;;;4.87;;
41456;SDS011;27197;51.752;5.220;2023-07-31T13:53:43;8.03;;;4.28;;
41456;SDS011;27197;51.752;5.220;2023-07-31T13:56:15;6.97;;;4.40;;
41456;SDS011;27197;51.752;5.220;2023-07-31T13:58:44;8.58;;;4.70;;
41456;SDS011;27197;51.752;5.220;2023-07-31T14:04:02;9.08;;;4.58;;
41456;SDS011;27197;51.752;5.220;2023-07-31T14:06:29;9.23;;;5.22;;
41456;SDS011;27197;51.752;5.220;2023-07-31T14:08:59;9.60;;;5.08;;
41456;SDS011;27197;51.752;5.220;2023-07-31T14:11:28;6.75;;;4.47;;
41456;SDS011;27197;51.752;5.220;2023-07-31T14:13:59;7.45;;;4.33;;
41456;SDS011;27197;51.752;5.220;2023-07-31T14:16:35;7.80;;;5.35;;
41456;SDS011;27197;51.752;5.220;2023-07-31T14:19:06;5.92;;;4.40;;
41456;SDS011;27197;51.752;5.220;2023-07-31T14:21:40;7.12;;;4.17;;
41456;SDS011;27197;51.752;5.220;2023-07-31T14:24:10;7.35;;;4.55;;
41456;SDS011;27197;51.752;5.220;2023-07-31T14:26:41;6.50;;;4.67;;
41456;SDS011;27197;51.752;5.220;2023-07-31T14:29:11;6.17;;;4.35;;
41456;SDS011;27197;51.752;5.220;2023-07-31T14:31:42;8.85;;;4.20;;
41456;SDS011;27197;51.752;5.220;2023-07-31T14:34:11;6.03;;;4.30;;
41456;SDS011;27197;51.752;5.220;2023-07-31T14:36:44;7.05;;;4.25;;
41456;SDS011;27197;51.752;5.220;2023-07-31T14:39:13;7.17;;;4.42;;
41456;SDS011;27197;51.752;5.220;2023-07-31T14:41:45;6.90;;;4.45;;
41456;SDS011;27197;51.752;5.220;2023-07-31T14:44:16;6.90;;;4.50;;
41456;SDS011;27197;51.752;5.220;2023-07-31T14:46:45;9.28;;;5.62;;
41456;SDS011;27197;51.752;5.220;2023-07-31T14:49:18;7.15;;;4.78;;
41456;SDS011;27197;51.752;5.220;2023-07-31T14:51:47;8.60;;;5.15;;
41456;SDS011;27197;51.752;5.220;2023-07-31T14:54:21;6.50;;;3.90;;
41456;SDS011;27197;51.752;5.220;2023-07-31T14:56:50;8.88;;;4.08;;
41456;SDS011;27197;51.752;5.220;2023-07-31T14:59:27;7.40;;;3.80;;
41456;SDS011;27197;51.752;5.220;2023-07-31T15:01:57;6.12;;;3.80;;
41456;SDS011;27197;51.752;5.220;2023-07-31T15:04:29;5.95;;;3.58;;
41456;SDS011;27197;51.752;5.220;2023-07-31T15:06:59;7.33;;;4.90;;
41456;SDS011;27197;51.752;5.220;2023-07-31T15:09:33;5.72;;;3.45;;
41456;SDS011;27197;51.752;5.220;2023-07-31T15:12:03;4.85;;;3.22;;
41456;SDS011;27197;51.752;5.220;2023-07-31T15:14:45;6.17;;;3.77;;
41456;SDS011;27197;51.752;5.220;2023-07-31T15:17:15;3.85;;;2.47;;
41456;SDS011;27197;51.752;5.220;2023-07-31T15:19:47;4.53;;;2.52;;
41456;SDS011;27197;51.752;5.220;2023-07-31T15:22:17;6.20;;;2.72;;
41456;SDS011;27197;51.752;5.220;2023-07-31T15:24:50;3.70;;;2.10;;
41456;SDS011;27197;51.752;5.220;2023-07-31T15:27:19;3.70;;;1.65;;
41456;SDS011;27197;51.752;5.220;2023-07-31T15:29:53;4.10;;;2.10;;
41456;SDS011;27197;51.752;5.220;2023-07-31T15:32:24;3.08;;;2.25;;
41456;SDS011;27197;51.752;5.220;2023-07-31T15:34:56;4.72;;;2.27;;
41456;SDS011;27197;51.752;5.220;2023-07-31T15:37:28;2.75;;;1.57;;
41456;SDS011;27197;51.752;5.220;2023-07-31T15:39:58;2.60;;;1.60;;
41456;SDS011;27197;51.752;5.220;2023-07-31T15:42:31;3.22;;;2.00;;
41456;SDS011;27197;51.752;5.220;2023-07-31T15:45:01;3.45;;;2.25;;
41456;SDS011;27197;51.752;5.220;2023-07-31T15:47:30;2.15;;;1.30;;
41456;SDS011;27197;51.752;5.220;2023-07-31T15:50:03;2.27;;;1.35;;